Time;durP1;ratioP1;P1;durP2;ratioP2;P2;SDS_P1;SDS_P2;PMS_P1;PMS_P2;Temp;Humidity;BMP_temperature;BMP_pressure;BME280_temperature;BME280_humidity;BME280_pressure;Samples;Min_cycle;Max_cycle;Signal;HPM_P1;HPM_P2
2023/12/09 00:02:24;;;;;;;47.72;14.35;;;8.70;99.90;;;;;;5087225;28;20472;-77
2023/12/09 00:04:49;;;;;;;47.00;14.27;;;8.70;99.90;;;;;;5093779;28;20024;-77
2023/12/09 00:07:15;;;;;;;44.63;15.32;;;8.60;99.90;;;;;;5063959;28;20025;-78
2023/12/09 00:09:41;;;;;;;41.40;14.23;;;8.60;99.90;;;;;;5086349;28;20032;-77
2023/12/09 00:12:06;;;;;;;48.45;16.05;;;8.70;99.90;;;;;;5082711;28;20767;-77
2023/12/09 00:14:32;;;;;;;41.25;13.85;;;8.60;99.90;;;;;;5086047;28;20073;-77
2023/12/09 00:16:57;;;;;;;49.10;13.93;;;8.60;99.90;;;;;;5095080;28;20024;-78
2023/12/09 00:19:23;;;;;;;51.45;16.95;;;8.60;99.90;;;;;;5077708;28;20020;-77
2023/12/09 00:21:48;;;;;;;46.40;15.15;;;8.60;99.90;;;;;;5091902;28;20036;-78
2023/12/09 00:24:14;;;;;;;42.97;15.40;;;8.60;99.90;;;;;;5092352;28;20085;-78
2023/12/09 00:26:39;;;;;;;43.67;15.95;;;8.60;99.90;;;;;;5083430;28;20036;-78
2023/12/09 00:29:05;;;;;;;48.72;15.20;;;8.60;99.90;;;;;;5086800;28;20016;-78
2023/12/09 00:31:30;;;;;;;45.80;15.35;;;8.60;99.90;;;;;;5093090;28;20051;-78
2023/12/09 00:33:56;;;;;;;47.33;15.80;;;8.60;99.90;;;;;;5093422;28;20032;-77
2023/12/09 00:36:22;;;;;;;45.08;15.30;;;8.50;99.90;;;;;;5085543;28;20113;-76
2023/12/09 00:38:47;;;;;;;40.00;15.80;;;8.50;99.90;;;;;;5074694;28;20530;-78
2023/12/09 00:41:13;;;;;;;36.25;14.85;;;8.50;99.90;;;;;;5073384;28;20035;-77
2023/12/09 00:43:39;;;;;;;49.35;16.13;;;8.40;99.90;;;;;;5094376;28;20084;-78
2023/12/09 00:46:05;;;;;;;49.33;16.13;;;8.40;99.90;;;;;;5076256;28;20073;-78
2023/12/09 00:48:31;;;;;;;41.03;14.45;;;8.40;99.90;;;;;;5080099;28;20044;-78
2023/12/09 00:50:56;;;;;;;46.38;14.23;;;8.30;99.90;;;;;;5100538;28;20051;-78
2023/12/09 00:53:22;;;;;;;51.53;14.40;;;8.30;99.90;;;;;;5098348;28;20039;-78
2023/12/09 00:55:48;;;;;;;50.20;15.85;;;8.30;99.90;;;;;;5096350;28;20062;-77
2023/12/09 00:58:15;;;;;;;36.70;12.90;;;8.30;99.90;;;;;;5098030;28;20425;-77
2023/12/09 01:00:43;;;;;;;43.38;14.98;;;8.30;99.90;;;;;;5099564;28;20023;-78
2023/12/09 01:03:08;;;;;;;36.20;13.25;;;8.30;99.90;;;;;;5101254;28;20066;-77
2023/12/09 01:05:34;;;;;;;39.85;13.60;;;8.30;99.90;;;;;;5075929;28;20056;-77
2023/12/09 01:07:59;;;;;;;41.88;12.40;;;8.30;99.90;;;;;;5091643;28;20027;-76
2023/12/09 01:10:25;;;;;;;37.47;12.02;;;8.30;99.90;;;;;;5101482;28;20023;-78
2023/12/09 01:12:53;;;;;;;50.83;13.85;;;8.30;99.90;;;;;;5097823;28;20039;-77
2023/12/09 01:15:19;;;;;;;44.63;13.63;;;8.30;99.90;;;;;;5095475;28;20024;-77
2023/12/09 01:17:44;;;;;;;40.65;13.18;;;8.30;99.90;;;;;;5088300;28;20114;-76
2023/12/09 01:20:11;;;;;;;38.65;12.60;;;8.20;99.90;;;;;;5091387;28;20111;-78
2023/12/09 01:22:36;;;;;;;39.58;13.38;;;8.20;99.90;;;;;;5079363;28;20065;-77
2023/12/09 01:25:02;;;;;;;44.28;14.63;;;8.20;99.90;;;;;;5081619;28;20473;-77
2023/12/09 01:27:28;;;;;;;38.50;13.55;;;8.20;99.90;;;;;;5091071;28;20067;-77
2023/12/09 01:29:54;;;;;;;41.22;14.18;;;8.20;99.90;;;;;;5091280;28;20162;-78
2023/12/09 01:32:20;;;;;;;44.88;13.55;;;8.20;99.90;;;;;;5090981;28;20028;-78
2023/12/09 01:34:45;;;;;;;43.38;13.20;;;8.10;99.90;;;;;;5090574;28;20020;-78
2023/12/09 01:37:11;;;;;;;36.10;13.48;;;8.10;99.90;;;;;;5092110;28;20065;-78
2023/12/09 01:39:40;;;;;;;40.55;13.98;;;8.20;99.90;;;;;;5091964;28;20028;-78
2023/12/09 01:42:05;;;;;;;47.00;13.55;;;8.20;99.90;;;;;;5065647;28;20038;-79
2023/12/09 01:44:31;;;;;;;46.25;14.80;;;8.20;99.90;;;;;;5090628;28;20032;-78
2023/12/09 01:46:56;;;;;;;45.88;14.68;;;8.20;99.90;;;;;;5085089;28;20103;-77
2023/12/09 01:49:22;;;;;;;43.25;14.30;;;8.20;99.90;;;;;;5078965;28;20117;-78
2023/12/09 01:51:48;;;;;;;45.38;14.93;;;8.20;99.90;;;;;;5091956;28;20384;-77
2023/12/09 01:54:14;;;;;;;44.05;15.20;;;8.20;99.90;;;;;;5092122;28;20039;-78
2023/12/09 01:56:39;;;;;;;46.63;14.90;;;8.20;99.90;;;;;;5086525;28;20027;-79
2023/12/09 01:59:06;;;;;;;45.92;15.27;;;8.10;99.90;;;;;;5090571;28;20016;-78
2023/12/09 02:01:34;;;;;;;39.80;15.73;;;8.10;99.90;;;;;;5058501;28;20032;-78
2023/12/09 02:03:59;;;;;;;47.30;16.08;;;8.10;99.90;;;;;;5069907;28;20028;-78
2023/12/09 02:06:25;;;;;;;47.60;15.80;;;8.00;99.90;;;;;;5089458;28;20103;-78
2023/12/09 02:08:50;;;;;;;44.55;15.55;;;8.00;99.90;;;;;;5091937;28;20469;-79
2023/12/09 02:11:54;;;;;;;43.95;16.88;;;7.90;99.90;;;;;;5091487;28;20051;-78
2023/12/09 02:14:38;;;;;;;50.03;17.50;;;7.90;99.90;;;;;;5090701;28;20055;-78
2023/12/09 02:17:15;;;;;;;42.00;15.00;;;7.90;99.90;;;;;;5070345;28;20024;-79
2023/12/09 02:19:42;;;;;;;42.58;16.80;;;7.80;99.90;;;;;;5068956;28;20536;-78
2023/12/09 02:22:11;;;;;;;41.33;16.23;;;7.80;99.90;;;;;;5062805;28;20128;-79
2023/12/09 02:24:36;;;;;;;41.55;16.27;;;7.80;99.90;;;;;;5090094;28;20426;-78
2023/12/09 02:27:28;;;;;;;45.65;17.27;;;7.70;99.90;;;;;;5087666;28;20024;-79
2023/12/09 02:30:38;;;;;;;48.75;17.27;;;7.70;99.90;;;;;;5078871;28;20037;-78
2023/12/09 02:33:08;;;;;;;45.28;17.73;;;7.70;99.90;;;;;;4989389;28;20039;-78
2023/12/09 02:35:37;;;;;;;45.33;18.92;;;7.70;99.90;;;;;;5075989;28;20055;-79
2023/12/09 02:38:04;;;;;;;44.95;17.90;;;7.70;99.90;;;;;;5091452;28;20020;-79
2023/12/09 02:40:30;;;;;;;45.75;18.45;;;7.60;99.90;;;;;;5091336;28;20386;-78
2023/12/09 02:42:56;;;;;;;45.08;19.17;;;7.60;99.90;;;;;;5087811;28;20882;-78
2023/12/09 02:45:22;;;;;;;42.15;16.75;;;7.50;99.90;;;;;;5094663;28;20115;-78
2023/12/09 02:47:48;;;;;;;46.95;18.63;;;7.50;99.90;;;;;;5093380;28;20028;-78
2023/12/09 02:50:14;;;;;;;44.20;17.33;;;7.50;99.90;;;;;;5072920;28;20028;-78
2023/12/09 02:52:40;;;;;;;45.00;18.40;;;7.50;99.90;;;;;;5093350;28;20036;-77
2023/12/09 02:55:07;;;;;;;52.92;18.77;;;7.40;99.90;;;;;;5095101;28;20488;-77
2023/12/09 02:57:32;;;;;;;44.97;18.90;;;7.40;99.90;;;;;;5094958;28;20024;-78
2023/12/09 02:59:58;;;;;;;51.08;18.30;;;7.30;99.90;;;;;;5092100;28;20035;-78
2023/12/09 03:02:24;;;;;;;45.15;17.13;;;7.30;99.90;;;;;;5094056;28;20057;-77
2023/12/09 03:04:49;;;;;;;44.53;18.77;;;7.30;99.90;;;;;;5095298;28;20445;-78
2023/12/09 03:07:19;;;;;;;48.10;18.13;;;7.20;99.90;;;;;;5093961;28;20382;-78
2023/12/09 03:09:45;;;;;;;46.00;16.92;;;7.20;99.90;;;;;;5091817;28;20115;-78
2023/12/09 03:12:11;;;;;;;51.33;18.48;;;7.20;99.90;;;;;;5076302;28;20163;-78
2023/12/09 03:14:36;;;;;;;47.67;17.67;;;7.10;99.90;;;;;;5075914;28;20031;-77
2023/12/09 03:17:02;;;;;;;42.47;17.40;;;7.10;99.90;;;;;;5094249;28;20032;-78
2023/12/09 03:19:28;;;;;;;48.05;18.05;;;7.10;99.90;;;;;;5092000;28;20146;-80
2023/12/09 03:21:53;;;;;;;44.55;16.90;;;7.00;99.90;;;;;;5075785;28;20036;-78
2023/12/09 03:24:19;;;;;;;44.60;16.35;;;7.00;99.90;;;;;;5076406;28;20020;-77
2023/12/09 03:26:49;;;;;;;44.67;15.68;;;7.00;99.90;;;;;;5094616;28;20089;-78
2023/12/09 03:29:15;;;;;;;50.80;17.52;;;7.10;99.90;;;;;;5091420;28;20478;-78
2023/12/09 03:31:41;;;;;;;45.40;17.50;;;7.00;99.90;;;;;;5094824;28;20031;-78
2023/12/09 03:34:06;;;;;;;49.40;17.50;;;7.10;99.90;;;;;;5092014;28;20079;-78
2023/12/09 03:36:32;;;;;;;46.60;17.88;;;7.10;99.90;;;;;;5065845;28;20497;-78
2023/12/09 03:38:57;;;;;;;45.42;16.23;;;7.10;99.90;;;;;;5089577;28;20119;-78
2023/12/09 03:41:23;;;;;;;43.47;16.10;;;7.10;99.90;;;;;;5093554;28;20036;-78
2023/12/09 03:43:48;;;;;;;42.10;16.10;;;7.20;99.90;;;;;;5094284;28;20025;-78
2023/12/09 03:46:14;;;;;;;46.92;15.98;;;7.20;99.90;;;;;;5094739;28;20051;-78
2023/12/09 03:48:39;;;;;;;36.47;14.93;;;7.20;99.90;;;;;;5091918;28;20067;-77
2023/12/09 03:51:05;;;;;;;40.20;14.57;;;7.30;99.90;;;;;;5092841;28;20036;-78
2023/12/09 03:53:31;;;;;;;40.20;14.77;;;7.30;99.90;;;;;;5093986;28;20036;-78
2023/12/09 03:55:57;;;;;;;45.35;14.15;;;7.30;99.90;;;;;;5093577;28;20020;-78
2023/12/09 03:58:23;;;;;;;44.05;14.88;;;7.30;99.90;;;;;;5094079;28;20094;-78
2023/12/09 04:00:49;;;;;;;46.95;13.82;;;7.30;99.90;;;;;;5092441;28;20449;-78
2023/12/09 04:03:16;;;;;;;37.72;13.52;;;7.30;99.90;;;;;;5083474;28;20037;-78
2023/12/09 04:05:41;;;;;;;45.03;13.40;;;7.30;99.90;;;;;;5092848;28;20028;-78
2023/12/09 04:08:10;;;;;;;35.05;12.35;;;7.30;99.90;;;;;;5093557;28;20103;-78
2023/12/09 04:10:36;;;;;;;39.55;13.60;;;7.30;99.90;;;;;;5092638;28;20082;-78
2023/12/09 04:13:01;;;;;;;42.20;12.57;;;7.20;99.90;;;;;;5075292;28;20048;-78
2023/12/09 04:15:27;;;;;;;38.38;12.38;;;7.20;99.90;;;;;;5075436;28;20020;-79
2023/12/09 04:17:53;;;;;;;39.15;11.93;;;7.20;99.90;;;;;;5093515;28;20036;-78
2023/12/09 04:20:19;;;;;;;32.75;11.48;;;7.20;99.90;;;;;;5092166;28;20036;-78
2023/12/09 04:22:44;;;;;;;31.83;11.27;;;7.20;99.90;;;;;;5092291;28;20063;-78
2023/12/09 04:25:10;;;;;;;35.78;10.85;;;7.20;99.90;;;;;;5075482;28;20035;-78
2023/12/09 04:27:36;;;;;;;37.75;10.35;;;7.20;99.90;;;;;;5092924;28;20052;-78
2023/12/09 04:30:04;;;;;;;36.38;10.05;;;7.20;99.90;;;;;;5065618;28;20033;-78
2023/12/09 04:32:30;;;;;;;37.78;11.05;;;7.20;99.90;;;;;;5067950;28;20028;-78
2023/12/09 04:34:57;;;;;;;36.33;11.18;;;7.20;99.90;;;;;;5074270;28;20028;-78
2023/12/09 04:37:22;;;;;;;36.88;10.82;;;7.20;99.90;;;;;;5076338;28;20024;-78
2023/12/09 04:39:48;;;;;;;38.22;10.80;;;7.10;99.90;;;;;;5090620;28;20039;-79
2023/12/09 04:42:14;;;;;;;35.65;10.20;;;7.10;99.90;;;;;;5093239;28;20042;-78
2023/12/09 04:44:39;;;;;;;33.92;10.88;;;7.10;99.90;;;;;;5093410;28;20016;-78
2023/12/09 04:47:06;;;;;;;35.47;10.43;;;7.10;99.90;;;;;;5074434;28;20042;-78
2023/12/09 04:49:32;;;;;;;43.92;11.68;;;7.10;99.90;;;;;;5062570;28;20027;-78
2023/12/09 04:51:57;;;;;;;45.83;12.65;;;7.00;99.90;;;;;;5089652;28;20310;-78
2023/12/09 04:54:23;;;;;;;33.47;11.75;;;7.10;99.90;;;;;;5093270;28;20028;-78
2023/12/09 04:56:48;;;;;;;40.33;11.93;;;7.10;99.90;;;;;;5093275;28;20020;-78
2023/12/09 04:59:14;;;;;;;49.53;13.40;;;7.10;99.90;;;;;;5091916;28;20031;-78
2023/12/09 05:01:39;;;;;;;40.00;13.00;;;7.10;99.90;;;;;;5072961;28;20043;-79
2023/12/09 05:04:05;;;;;;;41.78;12.80;;;7.10;99.90;;;;;;5091405;28;20360;-79
2023/12/09 05:06:30;;;;;;;45.17;13.60;;;7.10;99.90;;;;;;5091306;28;20430;-79
2023/12/09 05:08:56;;;;;;;35.55;12.63;;;7.10;99.90;;;;;;5092769;28;20036;-78
2023/12/09 05:11:21;;;;;;;37.00;12.65;;;7.10;99.90;;;;;;5069530;28;20044;-78
2023/12/09 05:13:47;;;;;;;37.80;12.48;;;7.20;99.90;;;;;;5071758;28;20051;-79
2023/12/09 05:16:13;;;;;;;42.53;14.60;;;7.20;99.90;;;;;;5063019;28;20477;-78
2023/12/09 05:18:38;;;;;;;43.88;14.05;;;7.20;99.90;;;;;;5072539;28;20024;-78
2023/12/09 05:21:07;;;;;;;41.88;14.00;;;7.20;99.90;;;;;;5069323;28;20046;-79
2023/12/09 05:23:33;;;;;;;37.50;13.65;;;7.20;99.90;;;;;;5070263;28;20382;-78
2023/12/09 05:25:59;;;;;;;40.72;14.35;;;7.20;99.90;;;;;;5072273;28;20024;-78
2023/12/09 05:28:24;;;;;;;43.30;14.45;;;7.20;99.90;;;;;;5070794;28;20024;-78
2023/12/09 05:30:50;;;;;;;42.28;14.10;;;7.20;99.90;;;;;;5059410;28;20031;-78
2023/12/09 05:33:16;;;;;;;37.92;14.30;;;7.20;99.90;;;;;;5071241;28;20032;-79
2023/12/09 05:35:41;;;;;;;36.65;13.85;;;7.20;99.90;;;;;;5072369;28;20458;-79
2023/12/09 05:38:07;;;;;;;41.35;14.85;;;7.20;99.90;;;;;;5063596;28;20025;-78
2023/12/09 05:40:32;;;;;;;37.53;15.40;;;7.30;99.90;;;;;;5066720;28;20036;-78
2023/12/09 05:42:58;;;;;;;36.90;14.70;;;7.30;99.90;;;;;;5057829;28;20052;-79
2023/12/09 05:45:23;;;;;;;45.45;15.73;;;7.30;99.90;;;;;;5070908;28;20024;-78
2023/12/09 05:47:49;;;;;;;39.95;15.98;;;7.30;99.90;;;;;;5071777;28;20025;-78
2023/12/09 05:50:14;;;;;;;41.50;15.48;;;7.30;99.90;;;;;;5063239;28;20043;-79
2023/12/09 05:52:43;;;;;;;37.65;14.85;;;7.30;99.90;;;;;;5065180;28;20068;-79
2023/12/09 05:55:09;;;;;;;38.65;15.98;;;7.30;99.90;;;;;;5072045;28;20025;-78
2023/12/09 05:57:34;;;;;;;42.75;15.90;;;7.30;99.90;;;;;;5072480;28;20033;-78
2023/12/09 06:00:00;;;;;;;34.92;15.23;;;7.30;99.90;;;;;;5067922;28;20028;-80
2023/12/09 06:02:25;;;;;;;45.00;16.67;;;7.30;99.90;;;;;;5081771;28;20508;-79
2023/12/09 06:04:51;;;;;;;40.17;15.63;;;7.30;99.90;;;;;;5080570;28;20675;-79
2023/12/09 06:07:16;;;;;;;41.80;15.85;;;7.30;99.90;;;;;;5077969;28;20024;-79
2023/12/09 06:09:42;;;;;;;39.55;15.35;;;7.30;99.90;;;;;;5077277;28;20500;-79
2023/12/09 06:12:08;;;;;;;47.50;17.55;;;7.30;99.90;;;;;;5093699;28;20092;-79
2023/12/09 06:14:33;;;;;;;44.70;16.30;;;7.30;99.90;;;;;;5097467;28;20111;-79
2023/12/09 06:16:59;;;;;;;42.47;16.30;;;7.30;99.90;;;;;;5100086;28;20028;-79
2023/12/09 06:19:24;;;;;;;42.83;17.48;;;7.30;99.90;;;;;;5102859;28;20023;-80
2023/12/09 06:21:50;;;;;;;37.22;16.58;;;7.30;99.90;;;;;;5100214;28;20123;-78
2023/12/09 06:24:16;;;;;;;46.65;18.05;;;7.30;99.90;;;;;;5107761;28;20012;-78
2023/12/09 06:26:43;;;;;;;39.22;18.63;;;7.40;99.90;;;;;;5099793;28;20031;-77
2023/12/09 06:29:11;;;;;;;43.28;19.00;;;7.30;99.90;;;;;;5103954;28;20023;-78
2023/12/09 06:31:37;;;;;;;40.67;18.42;;;7.40;99.90;;;;;;5105998;28;20028;-79
2023/12/09 06:34:03;;;;;;;46.70;18.67;;;7.40;99.90;;;;;;5083789;28;20020;-79
2023/12/09 06:36:28;;;;;;;45.85;20.20;;;7.40;99.90;;;;;;5091748;28;20024;-79
2023/12/09 06:38:54;;;;;;;54.25;20.10;;;7.40;99.90;;;;;;5105315;28;20028;-79
2023/12/09 06:41:19;;;;;;;48.60;21.25;;;7.40;99.90;;;;;;5106159;28;20024;-79
2023/12/09 06:43:46;;;;;;;41.35;19.38;;;7.40;99.90;;;;;;5103559;28;20027;-79
2023/12/09 06:46:11;;;;;;;45.45;20.75;;;7.40;99.90;;;;;;5089172;28;20043;-80
2023/12/09 06:48:38;;;;;;;47.63;20.73;;;7.40;99.90;;;;;;5097770;28;20481;-79
2023/12/09 06:51:04;;;;;;;50.78;24.10;;;7.50;99.90;;;;;;5105491;28;20028;-79
2023/12/09 06:53:29;;;;;;;52.38;24.25;;;7.50;99.90;;;;;;5086173;28;20087;-79
2023/12/09 06:55:55;;;;;;;45.95;24.65;;;7.50;99.90;;;;;;5107395;28;20055;-77
2023/12/09 06:58:20;;;;;;;47.33;24.35;;;7.50;99.90;;;;;;5101647;28;20028;-79
2023/12/09 07:00:46;;;;;;;60.22;29.13;;;7.50;99.90;;;;;;5102498;28;20024;-78
2023/12/09 07:03:12;;;;;;;62.10;26.45;;;7.50;99.90;;;;;;5078979;28;20047;-78
2023/12/09 07:05:38;;;;;;;57.00;26.65;;;7.50;99.90;;;;;;5097231;28;20072;-78
2023/12/09 07:08:04;;;;;;;63.88;28.05;;;7.50;99.90;;;;;;5076596;28;20035;-78
2023/12/09 07:10:29;;;;;;;52.13;26.25;;;7.60;99.90;;;;;;5097373;28;20099;-78
2023/12/09 07:12:55;;;;;;;57.13;27.75;;;7.50;99.90;;;;;;5095892;28;20087;-78
2023/12/09 07:15:20;;;;;;;58.75;27.42;;;7.50;99.90;;;;;;5086129;28;20035;-78
2023/12/09 07:17:46;;;;;;;48.05;24.95;;;7.60;99.90;;;;;;5095866;28;20024;-78
2023/12/09 07:20:12;;;;;;;54.95;28.05;;;7.60;99.90;;;;;;5078387;28;20055;-78
2023/12/09 07:22:37;;;;;;;58.17;28.83;;;7.60;99.90;;;;;;5078144;28;20043;-78
2023/12/09 07:25:03;;;;;;;60.22;28.92;;;7.60;99.90;;;;;;5072252;28;20075;-78
2023/12/09 07:27:30;;;;;;;49.65;26.48;;;7.60;99.90;;;;;;5078938;28;20252;-79
2023/12/09 07:29:56;;;;;;;60.53;29.17;;;7.60;99.90;;;;;;5091511;28;20027;-78
2023/12/09 07:32:21;;;;;;;52.33;27.40;;;7.60;99.90;;;;;;5095472;28;20117;-78
2023/12/09 07:34:47;;;;;;;49.15;28.70;;;7.60;99.90;;;;;;5095476;28;20062;-78
2023/12/09 07:37:14;;;;;;;59.00;29.65;;;7.60;99.90;;;;;;5096412;28;20028;-79
2023/12/09 07:39:40;;;;;;;66.00;30.92;;;7.60;99.90;;;;;;5096888;28;20073;-78
2023/12/09 07:42:07;;;;;;;57.53;28.73;;;7.70;99.90;;;;;;5085811;28;20032;-78
2023/12/09 07:44:33;;;;;;;56.97;29.77;;;7.70;99.90;;;;;;5090664;28;20032;-78
2023/12/09 07:46:58;;;;;;;56.10;27.52;;;7.70;99.90;;;;;;5073708;28;20076;-78
2023/12/09 07:49:24;;;;;;;59.92;29.55;;;7.70;99.90;;;;;;5077353;28;20028;-78
2023/12/09 07:51:50;;;;;;;57.05;30.90;;;7.70;99.90;;;;;;5092315;28;20028;-78
2023/12/09 07:54:15;;;;;;;56.15;28.90;;;7.80;99.90;;;;;;5093140;28;20032;-78
2023/12/09 07:56:41;;;;;;;61.42;32.92;;;7.70;99.90;;;;;;5089314;28;20372;-78
2023/12/09 07:59:07;;;;;;;56.85;31.90;;;7.80;99.90;;;;;;5069170;28;20080;-78
2023/12/09 08:01:33;;;;;;;56.83;28.63;;;7.80;99.90;;;;;;5086217;28;20548;-78
2023/12/09 08:03:59;;;;;;;58.65;31.33;;;7.80;99.90;;;;;;5094955;28;20024;-78
2023/12/09 08:06:25;;;;;;;55.30;30.80;;;7.80;99.90;;;;;;5095535;28;20023;-78
2023/12/09 08:08:51;;;;;;;58.30;32.60;;;7.80;99.90;;;;;;5075238;28;20073;-78
2023/12/09 08:11:18;;;;;;;59.38;31.45;;;7.90;99.90;;;;;;5077483;28;20055;-78
2023/12/09 08:13:44;;;;;;;53.92;31.27;;;7.90;99.90;;;;;;5087809;28;20038;-79
2023/12/09 08:16:10;;;;;;;48.60;26.15;;;7.90;99.90;;;;;;5075700;28;20111;-78
2023/12/09 08:18:35;;;;;;;57.25;30.80;;;8.00;99.90;;;;;;5087944;28;20032;-78
2023/12/09 08:21:02;;;;;;;64.43;30.08;;;8.00;99.90;;;;;;5094791;28;20028;-78
2023/12/09 08:23:28;;;;;;;60.10;30.23;;;8.00;99.90;;;;;;5088905;28;20036;-78
2023/12/09 08:25:55;;;;;;;54.92;29.42;;;8.00;99.90;;;;;;5062981;28;20032;-78
2023/12/09 08:28:20;;;;;;;53.05;29.35;;;8.00;99.90;;;;;;5094129;28;20482;-78
2023/12/09 08:30:46;;;;;;;50.60;26.77;;;8.00;99.90;;;;;;5092332;28;20111;-78
2023/12/09 08:33:13;;;;;;;51.30;28.25;;;8.00;99.90;;;;;;5075160;28;20020;-78
2023/12/09 08:35:38;;;;;;;53.83;28.95;;;8.00;99.90;;;;;;5070152;28;20489;-78
2023/12/09 08:38:04;;;;;;;50.40;27.33;;;8.10;99.90;;;;;;5082353;28;20031;-78
2023/12/09 08:40:30;;;;;;;51.75;27.55;;;8.10;99.90;;;;;;5091491;28;20027;-78
2023/12/09 08:42:55;;;;;;;50.88;28.02;;;8.10;99.90;;;;;;5091975;28;20111;-78
2023/12/09 08:45:26;;;;;;;43.85;23.52;;;8.10;99.90;;;;;;5091338;28;20114;-78
2023/12/09 08:47:52;;;;;;;43.63;24.23;;;8.10;99.90;;;;;;5090867;28;20067;-78
2023/12/09 08:50:18;;;;;;;44.00;24.88;;;8.10;99.90;;;;;;5084118;28;20129;-78
2023/12/09 08:52:43;;;;;;;43.33;23.55;;;8.10;99.90;;;;;;5085485;28;20081;-78
2023/12/09 08:55:09;;;;;;;48.40;24.67;;;8.20;99.90;;;;;;5093015;28;20098;-78
2023/12/09 08:57:35;;;;;;;41.78;22.95;;;8.20;99.90;;;;;;5091147;28;20047;-78
2023/12/09 09:00:06;;;;;;;47.00;23.48;;;8.30;99.90;;;;;;5089392;28;20066;-78
2023/12/09 09:02:32;;;;;;;38.83;21.65;;;8.30;99.90;;;;;;5092846;28;20036;-78
2023/12/09 09:04:58;;;;;;;39.58;21.38;;;8.30;99.90;;;;;;5059223;28;20032;-78
2023/12/09 09:07:23;;;;;;;47.47;22.25;;;8.30;99.90;;;;;;5091050;28;20030;-78
2023/12/09 09:09:49;;;;;;;42.97;21.98;;;8.30;99.90;;;;;;5092076;28;20055;-79
2023/12/09 09:12:14;;;;;;;43.20;20.85;;;8.30;99.90;;;;;;5089688;28;20055;-80
2023/12/09 09:14:40;;;;;;;41.70;21.52;;;8.40;99.90;;;;;;5091576;28;20036;-78
2023/12/09 09:17:06;;;;;;;44.47;19.98;;;8.40;99.90;;;;;;5091863;28;20448;-78
2023/12/09 09:19:31;;;;;;;43.10;20.77;;;8.40;99.90;;;;;;5071768;28;20470;-78
2023/12/09 09:21:57;;;;;;;38.08;20.45;;;8.40;99.90;;;;;;5072535;28;20055;-78
2023/12/09 09:24:23;;;;;;;36.70;19.30;;;8.40;99.90;;;;;;5083256;28;20092;-80
2023/12/09 09:26:49;;;;;;;43.50;19.55;;;8.50;99.90;;;;;;5087318;28;20119;-79
2023/12/09 09:29:14;;;;;;;29.45;16.50;;;8.50;99.90;;;;;;5074562;28;20036;-79
2023/12/09 09:31:40;;;;;;;37.63;18.13;;;8.50;99.90;;;;;;5073642;28;20034;-79
2023/12/09 09:34:06;;;;;;;40.13;18.55;;;8.50;99.90;;;;;;5085229;28;20036;-78
2023/12/09 09:36:31;;;;;;;31.67;15.27;;;8.60;99.90;;;;;;5084401;28;20032;-79
2023/12/09 09:38:57;;;;;;;37.53;16.80;;;8.70;99.90;;;;;;5091708;28;20108;-79
2023/12/09 09:41:37;;;;;;;35.33;14.48;;;8.70;99.90;;;;;;5074461;28;20032;-78
2023/12/09 09:44:18;;;;;;;37.83;16.77;;;8.70;99.90;;;;;;5085644;28;20125;-79
2023/12/09 09:46:46;;;;;;;34.15;15.75;;;8.70;99.90;;;;;;5085314;28;20047;-79
2023/12/09 09:49:14;;;;;;;28.77;13.32;;;8.70;99.90;;;;;;5073100;28;20028;-79
2023/12/09 09:51:43;;;;;;;28.35;12.25;;;8.70;99.90;;;;;;5069594;28;20076;-78
2023/12/09 09:54:23;;;;;;;35.78;12.80;;;8.70;99.90;;;;;;5069017;28;20381;-79
2023/12/09 09:56:50;;;;;;;31.70;12.18;;;8.80;99.90;;;;;;5087842;28;20028;-79
2023/12/09 09:59:22;;;;;;;32.13;11.07;;;8.80;99.90;;;;;;5092423;28;20504;-80
2023/12/09 10:01:48;;;;;;;31.63;11.45;;;8.80;99.90;;;;;;5102037;28;20036;-78
2023/12/09 10:04:13;;;;;;;33.08;13.10;;;8.80;99.90;;;;;;5100783;28;20057;-78
2023/12/09 10:06:43;;;;;;;31.35;11.60;;;8.90;99.90;;;;;;5102493;28;20475;-78
2023/12/09 10:09:09;;;;;;;30.48;10.55;;;9.00;99.90;;;;;;5091792;28;20035;-79
2023/12/09 10:11:35;;;;;;;28.70;10.27;;;8.90;99.90;;;;;;5092403;28;20047;-80
2023/12/09 10:14:02;;;;;;;30.75;9.40;;;9.00;99.90;;;;;;5096624;28;20385;-78
2023/12/09 10:16:27;;;;;;;29.73;9.05;;;9.00;99.90;;;;;;5083982;28;20118;-79
2023/12/09 10:18:56;;;;;;;35.85;10.68;;;9.00;99.90;;;;;;5095355;28;20384;-79
2023/12/09 10:21:22;;;;;;;46.95;24.92;;;9.10;99.90;;;;;;5098686;28;20024;-79
2023/12/09 10:23:47;;;;;;;29.08;10.27;;;9.10;99.90;;;;;;5097013;28;20038;-79
2023/12/09 10:26:14;;;;;;;32.05;9.23;;;9.10;99.90;;;;;;5099471;28;20124;-80
2023/12/09 10:28:40;;;;;;;27.50;9.40;;;9.10;99.90;;;;;;5094611;28;20119;-79
2023/12/09 10:31:07;;;;;;;34.10;9.70;;;9.10;99.90;;;;;;5083153;28;20182;-79
2023/12/09 10:33:34;;;;;;;24.63;8.45;;;9.10;99.90;;;;;;5099965;28;20023;-79
2023/12/09 10:36:00;;;;;;;27.73;9.70;;;9.20;99.90;;;;;;5081991;28;20026;-79
2023/12/09 10:38:26;;;;;;;29.48;7.95;;;9.10;99.90;;;;;;5098311;28;20448;-79
2023/12/09 10:40:55;;;;;;;22.83;7.95;;;9.10;99.90;;;;;;5094140;28;20015;-79
2023/12/09 10:43:21;;;;;;;24.98;7.80;;;9.20;99.90;;;;;;5077426;28;20536;-79
2023/12/09 10:45:47;;;;;;;23.98;7.22;;;9.20;99.90;;;;;;5100467;28;20468;-79
2023/12/09 10:48:13;;;;;;;29.92;8.32;;;9.20;99.90;;;;;;5097097;28;20019;-79
2023/12/09 10:50:39;;;;;;;26.33;9.02;;;9.30;99.90;;;;;;5094983;28;20039;-80
2023/12/09 10:53:05;;;;;;;27.13;7.07;;;9.30;99.90;;;;;;5098341;28;20032;-79
2023/12/09 10:55:31;;;;;;;26.50;7.50;;;9.30;99.90;;;;;;5077309;28;20024;-79
2023/12/09 10:57:59;;;;;;;22.45;6.25;;;9.30;99.90;;;;;;5096624;28;20385;-79
2023/12/09 11:00:25;;;;;;;27.65;6.22;;;9.30;99.90;;;;;;5100446;28;20016;-78
2023/12/09 11:02:54;;;;;;;17.83;5.35;;;9.40;99.90;;;;;;5090594;28;20032;-79
2023/12/09 11:05:21;;;;;;;21.58;6.32;;;9.30;99.90;;;;;;5099305;28;20039;-79
2023/12/09 11:07:48;;;;;;;25.55;7.00;;;9.30;99.90;;;;;;5101883;28;20413;-79
2023/12/09 11:10:14;;;;;;;24.27;6.55;;;9.30;99.90;;;;;;5104581;28;20530;-78
2023/12/09 11:12:46;;;;;;;20.48;5.43;;;9.30;99.90;;;;;;5100521;28;20040;-78
2023/12/09 11:15:15;;;;;;;19.90;5.35;;;9.30;99.90;;;;;;5083615;28;20039;-78
2023/12/09 11:17:43;;;;;;;20.63;5.93;;;9.30;99.90;;;;;;5103981;28;20407;-78
2023/12/09 11:20:10;;;;;;;24.70;7.72;;;9.30;99.90;;;;;;5103274;28;20480;-79
2023/12/09 11:22:40;;;;;;;24.98;7.22;;;9.40;99.90;;;;;;5099569;28;20090;-79
2023/12/09 11:25:08;;;;;;;22.00;6.25;;;9.40;99.90;;;;;;5103268;28;20022;-79
2023/12/09 11:27:36;;;;;;;19.60;6.35;;;9.40;99.90;;;;;;5102203;28;20020;-79
2023/12/09 11:30:02;;;;;;;25.52;6.70;;;9.40;99.90;;;;;;5101195;28;20056;-79
2023/12/09 11:32:29;;;;;;;21.27;5.93;;;9.30;99.90;;;;;;5076934;28;20055;-79
2023/12/09 11:34:57;;;;;;;19.98;6.40;;;9.30;99.90;;;;;;5085373;28;20028;-79
2023/12/09 11:37:40;;;;;;;23.02;6.75;;;9.30;99.90;;;;;;5085986;28;20032;-79
2023/12/09 11:40:07;;;;;;;19.65;5.82;;;9.30;99.90;;;;;;5083582;28;20113;-78
2023/12/09 11:42:33;;;;;;;20.85;6.53;;;9.30;99.90;;;;;;5092259;28;20615;-78
2023/12/09 11:44:59;;;;;;;24.25;7.05;;;9.20;99.90;;;;;;5094563;28;20109;-77
2023/12/09 11:47:26;;;;;;;20.67;7.00;;;9.10;99.90;;;;;;5076581;28;20504;-77
2023/12/09 11:49:52;;;;;;;19.98;6.60;;;9.10;99.90;;;;;;5092532;28;20028;-78
2023/12/09 11:52:18;;;;;;;21.80;6.40;;;9.00;99.90;;;;;;5094635;28;20038;-78
2023/12/09 11:54:44;;;;;;;13.73;5.53;;;9.10;99.90;;;;;;5087811;28;20051;-79
2023/12/09 11:57:10;;;;;;;17.77;5.88;;;9.00;99.90;;;;;;5091755;28;20026;-79
2023/12/09 11:59:36;;;;;;;20.25;6.22;;;9.00;99.90;;;;;;5070778;28;20507;-79
2023/12/09 12:02:02;;;;;;;17.88;5.32;;;8.90;99.90;;;;;;5092716;28;20435;-79
2023/12/09 12:04:33;;;;;;;18.05;6.20;;;8.90;99.90;;;;;;5090378;28;20033;-76
2023/12/09 12:06:59;;;;;;;16.57;5.37;;;8.90;99.90;;;;;;5078390;28;20107;-77
2023/12/09 12:09:25;;;;;;;15.82;4.80;;;8.80;99.90;;;;;;5090606;28;20126;-78
2023/12/09 12:11:51;;;;;;;18.42;5.20;;;8.70;99.90;;;;;;5084207;28;20036;-78
2023/12/09 12:14:16;;;;;;;20.95;6.15;;;8.70;99.90;;;;;;5085377;28;20103;-78
2023/12/09 12:16:42;;;;;;;17.70;5.10;;;8.70;99.90;;;;;;5087811;28;20036;-79
2023/12/09 12:19:07;;;;;;;15.85;4.78;;;8.70;99.90;;;;;;5057386;28;20392;-78
2023/12/09 12:21:33;;;;;;;13.75;5.50;;;8.80;99.90;;;;;;5093999;28;20024;-78
2023/12/09 12:24:04;;;;;;;13.93;5.32;;;8.70;99.90;;;;;;5093613;28;20036;-79
2023/12/09 12:26:29;;;;;;;17.60;5.53;;;8.80;99.90;;;;;;5093239;28;20462;-78
2023/12/09 12:28:55;;;;;;;12.85;4.65;;;8.80;99.90;;;;;;5074507;28;20128;-78
2023/12/09 12:31:23;;;;;;;15.48;5.00;;;8.70;99.90;;;;;;5063348;28;20032;-78
2023/12/09 12:33:49;;;;;;;12.43;4.82;;;8.70;99.90;;;;;;5089761;28;20068;-80
2023/12/09 12:36:14;;;;;;;14.55;4.55;;;8.70;99.90;;;;;;5094309;28;20473;-78